createdAt,value
2018-02-13T00:02:17.594Z,14.35
2018-02-13T00:04:45.069Z,13.73
2018-02-13T00:07:12.527Z,13.85
2018-02-13T00:09:39.993Z,12.88
2018-02-13T00:12:07.567Z,13.73
2018-02-13T00:14:35.053Z,14.20
2018-02-13T00:17:02.608Z,14.23
2018-02-13T00:19:30.084Z,13.10
2018-02-13T00:21:57.559Z,12.70
2018-02-13T00:24:26.769Z,13.60
2018-02-13T00:26:54.332Z,13.10
2018-02-13T00:29:21.792Z,13.65
2018-02-13T00:31:49.324Z,13.02
2018-02-13T00:34:17.550Z,13.60
2018-02-13T00:36:45.005Z,13.60
2018-02-13T00:39:12.501Z,13.43
2018-02-13T00:41:40.080Z,12.57
2018-02-13T00:44:07.540Z,12.73
2018-02-13T00:46:35.108Z,12.82
2018-02-13T00:49:02.564Z,13.68
2018-02-13T00:51:30.024Z,13.20
2018-02-13T00:53:57.636Z,13.77
2018-02-13T00:56:26.623Z,13.07
2018-02-13T00:58:54.092Z,12.73
2018-02-13T01:01:21.564Z,13.25
2018-02-13T01:03:49.050Z,13.20
2018-02-13T01:06:16.608Z,12.88
2018-02-13T01:08:44.089Z,11.70
2018-02-13T01:11:11.543Z,13.40
2018-02-13T01:13:39.040Z,12.30
2018-02-13T01:18:44.107Z,12.02
2018-02-13T01:21:11.568Z,11.73
2018-02-13T01:23:39.027Z,11.43
2018-02-13T01:26:06.507Z,11.65
2018-02-13T01:28:34.073Z,11.55
2018-02-13T01:31:01.532Z,11.90
2018-02-13T01:33:28.984Z,11.10
2018-02-13T01:35:56.484Z,11.20
2018-02-13T01:38:23.944Z,10.65
2018-02-13T01:40:51.407Z,10.63
2018-02-13T01:43:18.884Z,10.77
2018-02-13T01:45:46.364Z,10.77
2018-02-13T01:48:13.876Z,9.65
2018-02-13T01:50:42.116Z,11.10
2018-02-13T01:53:09.576Z,10.25
2018-02-13T01:55:37.107Z,9.87
2018-02-13T01:58:05.356Z,10.45
2018-02-13T02:00:33.577Z,10.40
2018-02-13T02:03:01.116Z,10.20
2018-02-13T02:05:30.077Z,9.60
2018-02-13T02:07:57.580Z,9.20
2018-02-13T02:10:25.060Z,9.32
2018-02-13T02:12:53.312Z,7.80
2018-02-13T02:15:20.841Z,9.15
2018-02-13T02:17:49.063Z,8.77
2018-02-13T02:20:16.516Z,9.23
2018-02-13T02:22:43.980Z,8.10
2018-02-13T02:25:11.450Z,8.00
2018-02-13T02:27:38.967Z,8.10
2018-02-13T02:30:06.543Z,8.95
2018-02-13T02:32:34.019Z,8.57
2018-02-13T02:35:01.469Z,8.80
2018-02-13T02:37:28.932Z,8.02
2018-02-13T02:39:56.403Z,8.03
2018-02-13T02:42:23.899Z,8.10
2018-02-13T02:44:51.376Z,8.18
2018-02-13T02:47:18.830Z,8.77
2018-02-13T02:49:46.292Z,8.20
2018-02-13T02:52:13.864Z,8.27
2018-02-13T02:54:41.328Z,7.93
2018-02-13T02:57:08.796Z,8.30
2018-02-13T02:59:36.276Z,8.27
2018-02-13T03:02:03.730Z,8.18
2018-02-13T03:04:31.304Z,8.27
2018-02-13T03:06:58.772Z,8.15
2018-02-13T03:09:26.241Z,7.87
2018-02-13T03:11:53.736Z,8.38
2018-02-13T03:14:22.700Z,8.68
2018-02-13T03:16:50.172Z,8.50
2018-02-13T03:19:17.656Z,8.80
2018-02-13T03:21:45.136Z,7.80
2018-02-13T03:24:12.616Z,7.90
2018-02-13T03:26:40.084Z,7.68
2018-02-13T03:29:07.548Z,7.60
2018-02-13T03:31:35.000Z,7.85
2018-02-13T03:34:02.495Z,7.47
2018-02-13T03:36:30.052Z,7.50
2018-02-13T03:38:57.524Z,7.50
2018-02-13T03:41:25.018Z,8.05
2018-02-13T03:43:52.439Z,7.37
2018-02-13T03:46:19.936Z,7.95
2018-02-13T03:48:47.399Z,7.50
2018-02-13T03:51:14.886Z,7.85
2018-02-13T03:53:42.336Z,6.85
2018-02-13T03:56:09.796Z,7.40
2018-02-13T03:58:37.247Z,7.68
2018-02-13T04:01:04.708Z,7.60
2018-02-13T04:03:32.160Z,8.45
2018-02-13T04:06:00.400Z,7.62
2018-02-13T04:08:27.852Z,8.05
2018-02-13T04:10:55.348Z,7.55
2018-02-13T04:13:22.825Z,7.62
2018-02-13T04:15:50.312Z,7.70
2018-02-13T04:18:18.611Z,8.10
2018-02-13T04:20:46.851Z,8.07
2018-02-13T04:23:14.329Z,8.52
2018-02-13T04:25:41.999Z,8.70
2018-02-13T04:28:09.476Z,7.80
2018-02-13T04:30:36.931Z,8.40
2018-02-13T04:33:04.504Z,8.20
2018-02-13T04:35:32.180Z,8.20
2018-02-13T04:37:59.660Z,8.55
2018-02-13T04:40:27.216Z,9.00
2018-02-13T04:42:54.691Z,8.80
2018-02-13T04:45:22.263Z,8.38
2018-02-13T04:47:49.782Z,8.98
2018-02-13T04:50:18.032Z,8.50
2018-02-13T04:52:45.508Z,8.48
2018-02-13T04:55:13.063Z,8.52
2018-02-13T04:57:40.532Z,9.18
2018-02-13T05:00:08.000Z,9.70
2018-02-13T05:02:35.464Z,9.47
2018-02-13T05:05:02.948Z,8.77
2018-02-13T05:07:30.403Z,8.98
2018-02-13T05:09:57.880Z,9.45
2018-02-13T05:12:25.339Z,8.70
2018-02-13T05:14:52.808Z,9.20
2018-02-13T05:17:20.280Z,9.10
2018-02-13T05:19:47.764Z,9.32
2018-02-13T05:22:15.233Z,9.10
2018-02-13T05:24:42.791Z,8.07
2018-02-13T05:27:10.244Z,8.60
2018-02-13T05:29:37.719Z,7.90
2018-02-13T05:32:05.192Z,8.70
2018-02-13T05:34:32.668Z,8.68
2018-02-13T05:37:00.136Z,8.18
2018-02-13T05:39:27.613Z,7.85
2018-02-13T05:41:55.180Z,8.37
2018-02-13T05:44:22.650Z,7.50
2018-02-13T05:46:50.128Z,7.80
2018-02-13T05:49:17.592Z,8.15
2018-02-13T05:51:45.052Z,7.75
2018-02-13T05:54:12.532Z,7.25
2018-02-13T05:56:40.016Z,6.93
2018-02-13T05:59:07.479Z,7.62
2018-02-13T06:01:35.769Z,7.12
2018-02-13T06:04:03.248Z,6.47
2018-02-13T06:06:30.771Z,6.40
2018-02-13T06:08:58.244Z,6.70
2018-02-13T06:11:25.701Z,6.87
2018-02-13T06:13:53.163Z,6.60
2018-02-13T06:16:20.675Z,7.15
2018-02-13T06:18:48.128Z,6.70
2018-02-13T06:21:15.660Z,6.32
2018-02-13T06:23:43.900Z,7.12
2018-02-13T06:26:11.468Z,7.05
2018-02-13T06:28:38.952Z,6.55
2018-02-13T06:31:06.417Z,7.55
2018-02-13T06:33:33.879Z,6.97
2018-02-13T06:36:01.324Z,6.30
2018-02-13T06:38:28.821Z,6.90
2018-02-13T06:40:56.276Z,7.00
2018-02-13T06:43:23.870Z,6.53
2018-02-13T06:45:51.431Z,6.22
2018-02-13T06:48:18.896Z,8.00
2018-02-13T06:50:46.372Z,6.78
2018-02-13T06:53:13.831Z,6.90
2018-02-13T06:55:41.300Z,6.90
2018-02-13T06:58:08.776Z,5.95
2018-02-13T07:00:36.242Z,6.95
2018-02-13T07:03:03.716Z,6.30
2018-02-13T07:05:31.184Z,6.90
2018-02-13T07:07:58.763Z,6.60
2018-02-13T07:10:26.330Z,7.32
2018-02-13T07:12:53.796Z,6.80
2018-02-13T07:15:21.317Z,6.50
2018-02-13T07:17:49.563Z,6.60
2018-02-13T07:20:17.136Z,7.00
2018-02-13T07:22:44.603Z,7.00
2018-02-13T07:25:12.067Z,7.50
2018-02-13T07:27:39.544Z,7.30
2018-02-13T07:30:07.000Z,6.87
2018-02-13T07:32:34.476Z,6.37
2018-02-13T07:35:02.059Z,6.15
2018-02-13T07:37:29.516Z,6.35
2018-02-13T07:39:56.988Z,6.12
2018-02-13T07:42:24.463Z,6.50
2018-02-13T07:44:52.025Z,6.00
2018-02-13T07:47:19.492Z,6.07
2018-02-13T07:49:46.968Z,5.68
2018-02-13T07:52:14.436Z,5.60
2018-02-13T07:54:42.004Z,6.07
2018-02-13T07:57:09.576Z,6.35
2018-02-13T07:59:37.040Z,5.55
2018-02-13T08:02:04.528Z,6.35
2018-02-13T08:04:32.092Z,6.30
2018-02-13T08:06:59.560Z,5.72
2018-02-13T08:09:27.187Z,6.18
2018-02-13T08:11:54.655Z,6.00
2018-02-13T08:14:22.180Z,5.50
2018-02-13T08:16:49.660Z,5.60
2018-02-13T08:19:17.217Z,6.10
2018-02-13T08:21:44.675Z,5.90
2018-02-13T08:24:12.257Z,5.68
2018-02-13T08:26:39.720Z,5.70
2018-02-13T08:29:07.208Z,5.30
2018-02-13T08:31:34.692Z,5.75
2018-02-13T08:34:02.248Z,5.50
2018-02-13T08:36:29.804Z,5.62
2018-02-13T08:38:57.271Z,5.10
2018-02-13T08:41:24.752Z,5.43
2018-02-13T08:43:52.345Z,5.20
2018-02-13T08:46:19.832Z,5.00
2018-02-13T08:48:47.351Z,5.50
2018-02-13T08:51:14.815Z,5.43
2018-02-13T08:53:42.404Z,5.60
2018-02-13T08:56:09.872Z,6.22
2018-02-13T08:58:37.336Z,5.90
2018-02-13T09:01:04.812Z,5.10
2018-02-13T09:03:32.371Z,5.55
2018-02-13T09:05:59.839Z,5.35
2018-02-13T09:08:27.316Z,4.73
2018-02-13T09:10:54.784Z,5.10
2018-02-13T09:13:22.279Z,5.12
2018-02-13T09:15:49.737Z,4.43
2018-02-13T09:18:17.201Z,4.60
2018-02-13T09:20:44.670Z,5.20
2018-02-13T09:23:12.236Z,4.87
2018-02-13T09:25:39.756Z,4.63
2018-02-13T09:28:07.993Z,4.40
2018-02-13T09:30:35.471Z,4.60
2018-02-13T09:33:03.044Z,5.10
2018-02-13T09:35:30.604Z,4.60
2018-02-13T09:37:58.185Z,4.80
2018-02-13T09:40:25.748Z,5.32
2018-02-13T09:42:53.208Z,4.70
2018-02-13T09:45:20.928Z,5.20
2018-02-13T09:47:49.164Z,5.30
2018-02-13T09:50:16.624Z,4.70
2018-02-13T09:52:44.092Z,5.00
2018-02-13T09:55:11.548Z,5.00
2018-02-13T09:57:39.025Z,5.10
2018-02-13T10:00:06.544Z,4.60
2018-02-13T10:02:34.104Z,5.40
2018-02-13T10:05:01.592Z,4.53
2018-02-13T10:07:29.058Z,4.12
2018-02-13T10:09:56.516Z,4.62
2018-02-13T10:12:24.180Z,4.40
2018-02-13T10:14:51.642Z,4.90
2018-02-13T10:17:19.097Z,5.15
2018-02-13T10:19:46.556Z,4.90
2018-02-13T10:22:14.020Z,5.00
2018-02-13T10:24:41.583Z,4.50
2018-02-13T10:27:09.800Z,5.30
2018-02-13T10:29:37.276Z,4.70
2018-02-13T10:32:04.771Z,5.30
2018-02-13T10:34:32.228Z,4.40
2018-02-13T10:36:59.718Z,4.45
2018-02-13T10:39:27.268Z,5.30
2018-02-13T10:41:54.740Z,4.40
2018-02-13T10:44:22.208Z,4.75
2018-02-13T10:46:49.676Z,4.87
2018-02-13T10:49:17.141Z,4.68
2018-02-13T10:51:44.600Z,4.90
2018-02-13T10:54:12.096Z,4.47
2018-02-13T10:56:39.539Z,4.62
2018-02-13T10:59:07.114Z,4.62
2018-02-13T11:01:38.372Z,4.60
2018-02-13T11:04:05.861Z,4.10
2018-02-13T11:06:33.324Z,4.40
2018-02-13T11:09:00.801Z,4.10
2018-02-13T11:11:28.263Z,4.32
2018-02-13T11:13:55.728Z,4.87
2018-02-13T11:16:23.193Z,4.40
2018-02-13T11:18:50.784Z,4.72
2018-02-13T11:21:19.072Z,4.30
2018-02-13T11:23:46.528Z,4.20
2018-02-13T11:26:14.026Z,4.55
2018-02-13T11:28:41.673Z,4.70
2018-02-13T11:31:09.148Z,4.60
2018-02-13T11:33:36.615Z,4.50
2018-02-13T11:36:04.108Z,4.40
2018-02-13T11:38:31.664Z,4.57
2018-02-13T11:40:59.114Z,3.85
2018-02-13T11:43:26.696Z,4.50
2018-02-13T11:45:54.160Z,4.40
2018-02-13T11:48:21.628Z,3.90
2018-02-13T11:50:49.129Z,3.85
2018-02-13T11:53:17.754Z,4.45
2018-02-13T11:55:45.968Z,3.80
2018-02-13T11:58:13.435Z,4.00
2018-02-13T12:00:40.900Z,3.90
2018-02-13T12:03:08.364Z,3.72
2018-02-13T12:05:35.971Z,3.97
2018-02-13T12:08:03.445Z,3.60
2018-02-13T12:10:30.912Z,3.60
2018-02-13T12:12:58.492Z,3.50
2018-02-13T12:15:25.971Z,3.40
2018-02-13T12:17:53.451Z,3.65
2018-02-13T12:20:21.711Z,4.00
2018-02-13T12:22:49.284Z,3.55
2018-02-13T12:25:28.689Z,3.90
2018-02-13T12:27:56.148Z,3.80
2018-02-13T12:30:24.488Z,3.70
2018-02-13T12:32:51.978Z,3.80
2018-02-13T12:35:19.546Z,4.10
2018-02-13T12:37:47.023Z,3.55
2018-02-13T12:40:14.484Z,3.60
2018-02-13T12:42:41.948Z,3.70
2018-02-13T12:45:09.416Z,3.78
2018-02-13T12:47:36.983Z,3.50
2018-02-13T12:50:04.556Z,3.75
2018-02-13T12:52:32.023Z,3.70
2018-02-13T12:54:59.516Z,4.32
2018-02-13T12:57:26.969Z,3.93
2018-02-13T12:59:54.531Z,3.65
2018-02-13T13:02:21.997Z,3.50
2018-02-13T13:04:49.463Z,3.70
2018-02-13T13:07:16.927Z,3.37
2018-02-13T13:09:44.399Z,3.20
2018-02-13T13:12:11.885Z,3.40
2018-02-13T13:14:39.464Z,3.05
2018-02-13T13:17:06.923Z,3.22
2018-02-13T13:19:34.388Z,3.55
2018-02-13T13:22:01.857Z,3.67
2018-02-13T13:24:29.319Z,3.10
2018-02-13T13:26:56.812Z,3.37
2018-02-13T13:29:24.268Z,3.28
2018-02-13T13:31:51.727Z,2.50
2018-02-13T13:34:19.179Z,3.12
2018-02-13T13:36:46.672Z,3.35
2018-02-13T13:39:14.151Z,3.45
2018-02-13T13:41:41.620Z,3.20
2018-02-13T13:44:09.084Z,3.60
2018-02-13T13:46:36.544Z,3.10
2018-02-13T13:49:04.020Z,3.10
2018-02-13T13:51:31.523Z,2.90
2018-02-13T13:53:59.072Z,3.15
2018-02-13T13:56:26.631Z,3.00
2018-02-13T13:58:54.112Z,3.40
2018-02-13T14:01:21.676Z,2.90
2018-02-13T14:03:49.146Z,3.35
2018-02-13T14:06:16.635Z,16.40
2018-02-13T14:08:44.194Z,3.12
2018-02-13T14:11:11.660Z,3.33
2018-02-13T14:13:39.127Z,3.30
2018-02-13T14:16:06.607Z,3.75
2018-02-13T14:18:34.108Z,3.70
2018-02-13T14:21:02.376Z,3.50
2018-02-13T14:23:29.934Z,3.30
2018-02-13T14:25:57.383Z,2.90
2018-02-13T14:28:24.842Z,3.20
2018-02-13T14:30:52.307Z,3.30
2018-02-13T14:33:19.763Z,2.90
2018-02-13T14:35:47.272Z,2.60
2018-02-13T14:38:14.949Z,2.80
2018-02-13T14:40:42.426Z,3.62
2018-02-13T14:43:10.012Z,3.78
2018-02-13T14:45:37.616Z,3.10
2018-02-13T14:48:05.063Z,3.63
2018-02-13T14:50:33.325Z,2.78
2018-02-13T14:53:00.891Z,2.92
2018-02-13T14:55:28.370Z,3.00
2018-02-13T14:57:56.035Z,3.30
2018-02-13T15:00:23.499Z,2.80
2018-02-13T15:02:50.963Z,3.20
2018-02-13T15:05:18.631Z,2.83
2018-02-13T15:07:46.094Z,2.58
2018-02-13T15:10:13.595Z,3.20
2018-02-13T15:12:41.072Z,3.35
2018-02-13T15:15:24.328Z,2.83
2018-02-13T15:17:56.076Z,3.70
2018-02-13T15:20:23.551Z,3.30
2018-02-13T15:22:51.128Z,3.95
2018-02-13T15:25:18.774Z,4.40
2018-02-13T15:27:46.249Z,5.53
2018-02-13T15:30:13.731Z,4.32
2018-02-13T15:32:41.195Z,4.70
2018-02-13T15:35:08.652Z,4.60
2018-02-13T15:37:36.155Z,4.70
2018-02-13T15:40:03.621Z,4.22
2018-02-13T15:42:31.067Z,4.00
2018-02-13T15:44:58.540Z,4.30
2018-02-13T15:47:35.927Z,4.62
2018-02-13T15:50:03.388Z,3.90
2018-02-13T15:52:30.884Z,7.50
2018-02-13T15:54:58.451Z,5.60
2018-02-13T15:57:25.924Z,6.37
2018-02-13T15:59:53.387Z,5.25
2018-02-13T16:02:20.872Z,6.70
2018-02-13T16:04:48.425Z,7.82
2018-02-13T16:07:15.884Z,5.47
2018-02-13T16:09:43.360Z,5.70
2018-02-13T16:12:10.938Z,4.70
2018-02-13T16:14:38.400Z,4.90
2018-02-13T16:17:05.851Z,4.35
2018-02-13T16:19:33.340Z,5.25
2018-02-13T16:22:00.819Z,5.05
2018-02-13T16:24:28.273Z,4.62
2018-02-13T16:26:55.727Z,4.47
2018-02-13T16:29:23.215Z,4.60
2018-02-13T16:31:50.741Z,4.25
2018-02-13T16:34:18.960Z,4.55
2018-02-13T16:36:46.455Z,4.40
2018-02-13T16:39:13.920Z,4.10
2018-02-13T16:41:41.381Z,4.43
2018-02-13T16:44:08.943Z,5.80
2018-02-13T16:46:36.425Z,4.35
2018-02-13T16:49:03.890Z,5.10
2018-02-13T16:51:31.359Z,7.23
2018-02-13T16:53:58.815Z,4.80
2018-02-13T16:56:26.288Z,4.85
2018-02-13T16:58:53.755Z,5.30
2018-02-13T17:01:21.250Z,5.00
2018-02-13T17:03:48.693Z,5.00
2018-02-13T17:06:16.184Z,7.50
2018-02-13T17:08:43.656Z,8.30
2018-02-13T17:11:11.124Z,7.87
2018-02-13T17:13:38.691Z,7.65
2018-02-13T17:16:06.218Z,7.82
2018-02-13T17:18:33.688Z,7.70
2018-02-13T17:21:01.160Z,7.40
2018-02-13T17:23:28.664Z,7.03
2018-02-13T17:25:56.148Z,7.40
2018-02-13T17:28:23.719Z,8.80
2018-02-13T17:30:51.279Z,8.38
2018-02-13T17:33:18.752Z,9.00
2018-02-13T17:35:46.205Z,7.43
2018-02-13T17:38:13.674Z,7.20
2018-02-13T17:40:41.132Z,6.22
2018-02-13T17:43:08.588Z,6.47
2018-02-13T17:45:36.062Z,6.00
2018-02-13T17:48:03.524Z,6.50
2018-02-13T17:50:30.984Z,6.65
2018-02-13T17:52:59.208Z,8.35
2018-02-13T17:55:26.661Z,8.17
2018-02-13T17:57:54.119Z,7.32
2018-02-13T18:00:21.645Z,8.00
2018-02-13T18:02:49.122Z,7.50
2018-02-13T18:05:16.671Z,6.70
2018-02-13T18:07:44.123Z,6.78
2018-02-13T18:10:11.599Z,6.95
2018-02-13T18:12:39.056Z,6.90
2018-02-13T18:15:06.550Z,6.65
2018-02-13T18:17:34.127Z,7.83
2018-02-13T18:20:01.704Z,12.27
2018-02-13T18:22:29.155Z,12.60
2018-02-13T18:24:56.685Z,14.40
2018-02-13T18:27:24.920Z,10.45
2018-02-13T18:29:52.597Z,9.07
2018-02-13T18:32:20.043Z,9.05
2018-02-13T18:34:47.535Z,15.20
2018-02-13T18:37:15.103Z,12.40
2018-02-13T18:39:42.571Z,10.10
2018-02-13T18:42:10.052Z,11.98
2018-02-13T18:44:37.519Z,31.92
2018-02-13T18:47:04.982Z,18.70
2018-02-13T18:49:32.552Z,15.07
2018-02-13T18:52:00.014Z,16.70
2018-02-13T18:54:27.476Z,12.13
2018-02-13T18:56:55.174Z,11.77
2018-02-13T18:59:22.632Z,15.15
2018-02-13T19:01:50.112Z,9.27
2018-02-13T19:04:17.699Z,12.20
2018-02-13T19:06:45.255Z,15.85
2018-02-13T19:09:12.731Z,8.80
2018-02-13T19:11:40.213Z,10.50
2018-02-13T19:14:07.692Z,10.60
2018-02-13T19:16:35.228Z,14.70
2018-02-13T19:19:02.687Z,10.38
2018-02-13T19:21:30.147Z,9.88
2018-02-13T19:23:57.612Z,8.80
2018-02-13T19:26:25.115Z,9.40
2018-02-13T19:28:52.789Z,8.10
2018-02-13T19:31:20.243Z,9.40
2018-02-13T19:33:47.719Z,8.77
2018-02-13T19:36:15.295Z,8.57
2018-02-13T19:38:42.748Z,8.50
2018-02-13T19:41:10.211Z,9.60
2018-02-13T19:43:37.813Z,9.77
2018-02-13T19:46:05.268Z,9.32
2018-02-13T19:48:32.742Z,9.07
2018-02-13T19:51:00.313Z,9.38
2018-02-13T19:53:27.771Z,9.30
2018-02-13T19:55:55.234Z,11.12
2018-02-13T19:58:22.732Z,11.52
2018-02-13T20:00:50.223Z,11.02
2018-02-13T20:03:18.488Z,10.80
2018-02-13T20:05:46.063Z,15.18
2018-02-13T20:08:13.829Z,21.30
2018-02-13T20:10:41.296Z,17.87
2018-02-13T20:13:08.855Z,20.77
2018-02-13T20:15:36.366Z,15.82
2018-02-13T20:18:03.821Z,16.02
2018-02-13T20:20:31.283Z,13.33
2018-02-13T20:22:58.744Z,10.68
2018-02-13T20:25:26.339Z,15.00
2018-02-13T20:27:53.898Z,11.10
2018-02-13T20:30:21.364Z,12.10
2018-02-13T20:32:48.841Z,13.95
2018-02-13T20:35:16.418Z,16.20
2018-02-13T20:37:43.880Z,11.40
2018-02-13T20:40:11.448Z,10.73
2018-02-13T20:42:38.915Z,11.82
2018-02-13T20:45:06.376Z,12.27
2018-02-13T20:47:33.859Z,12.37
2018-02-13T20:50:01.345Z,13.35
2018-02-13T20:52:28.899Z,13.20
2018-02-13T20:54:56.363Z,12.23
2018-02-13T20:57:23.844Z,12.60
2018-02-13T20:59:51.333Z,12.57
2018-02-13T21:02:18.817Z,12.15
2018-02-13T21:04:47.074Z,11.98
2018-02-13T21:07:14.536Z,10.98
2018-02-13T21:09:42.004Z,11.38
2018-02-13T21:12:09.459Z,10.55
2018-02-13T21:14:37.055Z,10.80
2018-02-13T21:17:04.521Z,10.10
2018-02-13T21:19:32.092Z,10.20
2018-02-13T21:21:59.651Z,10.10
2018-02-13T21:24:27.127Z,10.10
2018-02-13T21:26:54.599Z,10.25
2018-02-13T21:29:22.060Z,9.90
2018-02-13T21:31:49.520Z,10.20
2018-02-13T21:34:17.008Z,10.52
2018-02-13T21:36:44.490Z,10.90
2018-02-13T21:39:11.959Z,9.70
2018-02-13T21:41:39.430Z,9.90
2018-02-13T21:44:06.895Z,9.77
2018-02-13T21:46:34.356Z,10.20
2018-02-13T21:49:02.031Z,9.80
2018-02-13T21:51:29.495Z,9.82
2018-02-13T21:53:57.176Z,10.48
2018-02-13T21:56:24.851Z,10.15
2018-02-13T21:58:52.317Z,10.73
2018-02-13T22:01:19.775Z,11.70
2018-02-13T22:03:47.264Z,10.48
2018-02-13T22:06:14.735Z,11.30
2018-02-13T22:08:42.204Z,10.70
2018-02-13T22:11:09.676Z,11.75
2018-02-13T22:13:37.168Z,10.93
2018-02-13T22:16:05.413Z,11.45
2018-02-13T22:18:32.887Z,11.40
2018-02-13T22:21:00.367Z,12.05
2018-02-13T22:23:27.827Z,12.00
2018-02-13T22:25:55.291Z,11.68
2018-02-13T22:28:22.760Z,11.12
2018-02-13T22:30:50.239Z,12.10
2018-02-13T22:33:17.811Z,11.35
2018-02-13T22:35:45.280Z,11.90
2018-02-13T22:38:12.856Z,11.02
2018-02-13T22:40:40.324Z,11.63
2018-02-13T22:43:07.787Z,10.70
2018-02-13T22:45:35.467Z,11.70
2018-02-13T22:48:02.923Z,10.98
2018-02-13T22:50:30.404Z,11.10
2018-02-13T22:52:57.887Z,10.95
2018-02-13T22:55:25.344Z,10.50
2018-02-13T22:57:52.814Z,11.38
2018-02-13T23:00:21.115Z,10.75
2018-02-13T23:02:48.572Z,11.65
2018-02-13T23:05:16.040Z,11.12
2018-02-13T23:07:43.504Z,11.52
2018-02-13T23:10:10.984Z,11.30
2018-02-13T23:12:38.455Z,11.25
2018-02-13T23:15:06.016Z,11.12
2018-02-13T23:17:33.493Z,12.25
2018-02-13T23:20:00.957Z,11.80
2018-02-13T23:22:28.540Z,11.52
2018-02-13T23:24:56.012Z,11.75
2018-02-13T23:27:24.983Z,11.65
2018-02-13T23:29:52.451Z,11.48
2018-02-13T23:32:19.956Z,11.70
2018-02-13T23:34:47.405Z,11.90
2018-02-13T23:37:14.883Z,11.50
2018-02-13T23:39:42.368Z,11.63
2018-02-13T23:42:09.821Z,10.52
2018-02-13T23:44:37.295Z,11.20
2018-02-13T23:47:04.757Z,12.07
2018-02-13T23:49:32.437Z,12.00
2018-02-13T23:51:59.908Z,11.50
2018-02-13T23:54:27.371Z,11.98
2018-02-13T23:56:54.948Z,11.60
2018-02-13T23:59:22.419Z,10.98
